Time;durP1;ratioP1;P1;durP2;ratioP2;P2;SDS_P1;SDS_P2;PMS_P1;PMS_P2;Temp;Humidity;BMP_temperature;BMP_pressure;BME280_temperature;BME280_humidity;BME280_pressure;Samples;Min_cycle;Max_cycle;Signal;HPM_P1;HPM_P2
2022/07/21 00:01:53;;;;;;;1.20;0.70;;;;;;;;;;5057197;28;20057;-68
2022/07/21 00:04:41;;;;;;;0.98;0.60;;;;;;;;;;5048543;28;20153;-70
2022/07/21 00:07:22;;;;;;;1.65;1.23;;;;;;;;;;5067097;28;20044;-69
2022/07/21 00:10:11;;;;;;;1.63;1.00;;;;;;;;;;5048772;28;20436;-68
2022/07/21 00:12:53;;;;;;;1.77;0.95;;;;;;;;;;5067006;28;20052;-68
2022/07/21 00:15:42;;;;;;;3.05;0.73;;;;;;;;;;5049036;28;20729;-69
2022/07/21 00:18:37;;;;;;;1.73;0.60;;;;;;;;;;5030180;28;20049;-67
2022/07/21 00:21:12;;;;;;;1.88;0.60;;;;;;;;;;5046656;28;20066;-69
2022/07/21 00:24:07;;;;;;;1.50;0.60;;;;;;;;;;5050010;28;20048;-69
2022/07/21 00:26:42;;;;;;;1.50;0.60;;;;;;;;;;5050337;28;20056;-66
2022/07/21 00:29:30;;;;;;;1.00;0.60;;;;;;;;;;5065985;28;20139;-69
2022/07/21 00:32:13;;;;;;;1.75;0.60;;;;;;;;;;5055051;28;20048;-69
2022/07/21 00:35:09;;;;;;;1.27;0.65;;;;;;;;;;5065464;28;20040;-68
2022/07/21 00:38:00;;;;;;;3.35;0.77;;;;;;;;;;5065654;28;20075;-68
2022/07/21 00:40:42;;;;;;;2.00;0.90;;;;;;;;;;5065732;28;20054;-68
2022/07/21 00:43:31;;;;;;;2.58;0.82;;;;;;;;;;5065492;28;20048;-69
2022/07/21 00:46:13;;;;;;;3.85;0.90;;;;;;;;;;5060788;28;20052;-68
2022/07/21 00:49:02;;;;;;;1.08;0.68;;;;;;;;;;5049445;28;20114;-68
2022/07/21 00:51:44;;;;;;;0.98;0.60;;;;;;;;;;5086018;28;20413;-69
2022/07/21 00:54:33;;;;;;;1.48;0.60;;;;;;;;;;5086127;28;20134;-69
2022/07/21 00:57:15;;;;;;;1.45;0.60;;;;;;;;;;5085967;28;20048;-68
2022/07/21 01:00:06;;;;;;;1.15;0.90;;;;;;;;;;5085038;28;20412;-66
2022/07/21 01:02:48;;;;;;;3.05;1.75;;;;;;;;;;5064745;28;20037;-68
2022/07/21 01:05:37;;;;;;;2.22;0.60;;;;;;;;;;5065584;28;20052;-68
2022/07/21 01:08:19;;;;;;;0.88;0.50;;;;;;;;;;5065615;28;20051;-68
2022/07/21 01:11:14;;;;;;;0.82;0.40;;;;;;;;;;5065309;28;20048;-68
2022/07/21 01:13:49;;;;;;;2.63;0.70;;;;;;;;;;5065552;28;20039;-68
2022/07/21 01:16:45;;;;;;;1.10;0.63;;;;;;;;;;5065361;28;20277;-68
2022/07/21 01:19:20;;;;;;;1.02;0.50;;;;;;;;;;5065409;28;20415;-68
2022/07/21 01:22:09;;;;;;;0.95;0.50;;;;;;;;;;5065206;28;20109;-69
2022/07/21 01:24:51;;;;;;;1.25;0.70;;;;;;;;;;5065696;28;20048;-68
2022/07/21 01:27:40;;;;;;;1.15;0.52;;;;;;;;;;5051758;28;20044;-69
2022/07/21 01:30:22;;;;;;;1.00;0.45;;;;;;;;;;5064783;28;20055;-69
2022/07/21 01:33:17;;;;;;;0.75;0.40;;;;;;;;;;5062823;28;20048;-69
2022/07/21 01:36:06;;;;;;;0.50;0.50;;;;;;;;;;5064902;28;20359;-70
2022/07/21 01:41:55;;;;;;;0.93;0.50;;;;;;;;;;5045063;28;20041;-69
2022/07/21 01:44:46;;;;;;;1.67;0.52;;;;;;;;;;5045140;28;20045;-70
2022/07/21 01:47:28;;;;;;;1.67;0.85;;;;;;;;;;5044021;28;20060;-71
2022/07/21 01:50:18;;;;;;;4.82;0.68;;;;;;;;;;5044946;28;20502;-70
2022/07/21 01:53:07;;;;;;;1.92;0.60;;;;;;;;;;5065109;28;20129;-67
2022/07/21 01:55:49;;;;;;;1.25;0.45;;;;;;;;;;5065556;28;20585;-69
2022/07/21 01:58:44;;;;;;;1.80;0.82;;;;;;;;;;5065344;28;20055;-69
2022/07/21 02:01:20;;;;;;;1.65;0.70;;;;;;;;;;5067039;28;20056;-69
2022/07/21 02:04:15;;;;;;;3.67;0.85;;;;;;;;;;5076062;28;20064;-68
2022/07/21 02:06:50;;;;;;;3.47;1.10;;;;;;;;;;5085543;28;20046;-69
2022/07/21 02:09:45;;;;;;;1.52;0.95;;;;;;;;;;5071437;28;20055;-69
2022/07/21 02:12:20;;;;;;;2.20;1.10;;;;;;;;;;5087166;28;20113;-69
2022/07/21 02:15:09;;;;;;;2.83;0.98;;;;;;;;;;5084797;28;20102;-68
2022/07/21 02:17:51;;;;;;;2.17;0.95;;;;;;;;;;5032654;28;20571;-68
2022/07/21 02:20:40;;;;;;;3.03;1.90;;;;;;;;;;5036976;28;20057;-69
2022/07/21 02:23:22;;;;;;;1.50;0.80;;;;;;;;;;5053271;28;20041;-70
2022/07/21 02:26:11;;;;;;;1.33;0.93;;;;;;;;;;5049077;28;20069;-69
2022/07/21 02:28:53;;;;;;;1.92;0.98;;;;;;;;;;5054216;28;20036;-69
2022/07/21 02:31:41;;;;;;;2.15;1.00;;;;;;;;;;5057327;28;20591;-69
2022/07/21 02:34:23;;;;;;;2.45;1.10;;;;;;;;;;5063106;28;20052;-70
2022/07/21 02:37:18;;;;;;;1.60;1.13;;;;;;;;;;5068501;28;20063;-70
2022/07/21 02:39:53;;;;;;;2.33;1.20;;;;;;;;;;5068847;28;20075;-70
2022/07/21 02:42:48;;;;;;;1.92;1.00;;;;;;;;;;5055444;28;20048;-69
2022/07/21 02:45:23;;;;;;;1.65;1.08;;;;;;;;;;5067538;28;20417;-68
2022/07/21 02:48:12;;;;;;;1.38;0.85;;;;;;;;;;5065801;28;20056;-70
2022/07/21 02:50:55;;;;;;;1.48;1.17;;;;;;;;;;5067533;28;20055;-70
2022/07/21 02:53:48;;;;;;;1.40;1.00;;;;;;;;;;5068009;28;20051;-69
2022/07/21 02:56:30;;;;;;;2.20;0.85;;;;;;;;;;5060372;28;20048;-69
2022/07/21 02:59:19;;;;;;;2.00;1.30;;;;;;;;;;5066764;28;20071;-69
2022/07/21 03:02:01;;;;;;;2.10;1.45;;;;;;;;;;5065815;28;20044;-67
2022/07/21 03:04:56;;;;;;;1.77;1.40;;;;;;;;;;5068586;28;20778;-70
2022/07/21 03:07:31;;;;;;;1.80;1.20;;;;;;;;;;5065372;28;20041;-70
2022/07/21 03:10:26;;;;;;;1.67;1.20;;;;;;;;;;5068126;28;20041;-69
2022/07/21 03:13:01;;;;;;;2.10;1.40;;;;;;;;;;5066569;28;20040;-70
2022/07/21 03:15:56;;;;;;;1.65;1.20;;;;;;;;;;5065672;28;20052;-70
2022/07/21 03:18:31;;;;;;;2.00;1.40;;;;;;;;;;5065113;28;20048;-70
2022/07/21 03:21:19;;;;;;;3.05;1.48;;;;;;;;;;5069453;28;20422;-70
2022/07/21 03:24:08;;;;;;;2.83;1.40;;;;;;;;;;5051726;28;20040;-69
2022/07/21 03:26:50;;;;;;;1.58;1.30;;;;;;;;;;5076332;28;20048;-68
2022/07/21 03:29:47;;;;;;;2.65;1.48;;;;;;;;;;5067104;28;20648;-70
2022/07/21 03:32:29;;;;;;;2.05;1.00;;;;;;;;;;5049100;28;20148;-68
2022/07/21 03:35:24;;;;;;;2.45;1.20;;;;;;;;;;5049856;28;20118;-68
2022/07/21 03:38:13;;;;;;;2.65;1.30;;;;;;;;;;5052083;28;20071;-69
2022/07/21 03:41:02;;;;;;;1.88;1.40;;;;;;;;;;5067637;28;20048;-69
2022/07/21 03:43:52;;;;;;;1.73;1.20;;;;;;;;;;5054696;28;20144;-70
2022/07/21 03:46:40;;;;;;;1.83;1.00;;;;;;;;;;5049630;28;20063;-69
2022/07/21 03:49:22;;;;;;;1.55;1.20;;;;;;;;;;5026717;28;20061;-69
2022/07/21 03:52:11;;;;;;;2.33;1.10;;;;;;;;;;5046742;28;20049;-69
2022/07/21 03:55:07;;;;;;;1.50;1.20;;;;;;;;;;5047454;28;20768;-69
2022/07/21 03:57:58;;;;;;;2.40;1.55;;;;;;;;;;5046889;28;20049;-69
2022/07/21 04:00:41;;;;;;;2.42;1.70;;;;;;;;;;5028883;28;20064;-68
2022/07/21 04:03:31;;;;;;;2.15;1.52;;;;;;;;;;5026792;28;20073;-68
2022/07/21 04:06:13;;;;;;;3.25;2.20;;;;;;;;;;5026818;28;20061;-68
2022/07/21 04:09:01;;;;;;;5.18;2.92;;;;;;;;;;5027015;28;20140;-68
2022/07/21 04:11:43;;;;;;;4.65;2.70;;;;;;;;;;5026505;28;20448;-69
2022/07/21 04:14:32;;;;;;;6.93;3.85;;;;;;;;;;5024817;28;20061;-69
2022/07/21 04:17:21;;;;;;;5.25;3.40;;;;;;;;;;5024960;28;20107;-71
2022/07/21 04:20:10;;;;;;;7.60;5.07;;;;;;;;;;5030940;28;20140;-69
2022/07/21 04:22:52;;;;;;;6.32;4.90;;;;;;;;;;5061179;28;20121;-66
2022/07/21 04:25:41;;;;;;;6.13;4.68;;;;;;;;;;5036952;28;20083;-71
2022/07/21 04:28:23;;;;;;;4.50;4.10;;;;;;;;;;5061867;28;20040;-71
2022/07/21 04:31:11;;;;;;;3.55;3.20;;;;;;;;;;5058393;28;20156;-71
2022/07/21 04:33:52;;;;;;;4.50;3.53;;;;;;;;;;5045184;28;20091;-71
2022/07/21 04:36:47;;;;;;;4.35;3.13;;;;;;;;;;5042498;28;20647;-70
2022/07/21 04:39:37;;;;;;;3.15;2.58;;;;;;;;;;5066514;28;20052;-69
2022/07/21 04:42:32;;;;;;;3.30;2.25;;;;;;;;;;5066230;28;20106;-69
2022/07/21 04:45:16;;;;;;;3.42;2.58;;;;;;;;;;5048160;28;20161;-71
2022/07/21 04:48:04;;;;;;;2.55;1.95;;;;;;;;;;5066482;28;20073;-69
2022/07/21 04:50:46;;;;;;;2.63;1.80;;;;;;;;;;5066026;28;20044;-68
2022/07/21 04:53:34;;;;;;;2.95;2.25;;;;;;;;;;5065119;28;20064;-68
2022/07/21 04:56:29;;;;;;;2.72;2.38;;;;;;;;;;5066992;28;20045;-69
2022/07/21 04:59:04;;;;;;;2.30;2.03;;;;;;;;;;5075211;28;20143;-68
2022/07/21 05:01:59;;;;;;;4.22;2.58;;;;;;;;;;5070025;28;20133;-65
2022/07/21 05:04:34;;;;;;;3.50;2.63;;;;;;;;;;5066388;28;20500;-68
2022/07/21 05:07:29;;;;;;;3.72;2.67;;;;;;;;;;5066628;28;20095;-69
2022/07/21 05:10:05;;;;;;;2.78;2.53;;;;;;;;;;5065477;28;20135;-69
2022/07/21 05:13:00;;;;;;;2.95;2.58;;;;;;;;;;5065914;28;20114;-69
2022/07/21 05:15:35;;;;;;;5.35;2.53;;;;;;;;;;5065092;28;20340;-69
2022/07/21 05:18:30;;;;;;;3.85;2.88;;;;;;;;;;5065202;28;20056;-68
2022/07/21 05:21:05;;;;;;;4.05;2.40;;;;;;;;;;5063951;28;20048;-68
2022/07/21 05:24:00;;;;;;;3.42;2.70;;;;;;;;;;5049221;28;20131;-68
2022/07/21 05:26:35;;;;;;;3.38;2.67;;;;;;;;;;5044617;28;20056;-68
2022/07/21 05:29:30;;;;;;;3.65;2.90;;;;;;;;;;5044794;28;20053;-67
2022/07/21 05:32:05;;;;;;;3.60;3.05;;;;;;;;;;5060263;28;20049;-69
2022/07/21 05:35:00;;;;;;;5.38;3.15;;;;;;;;;;5064684;28;20061;-68
2022/07/21 05:37:55;;;;;;;4.90;4.28;;;;;;;;;;5036712;28;20064;-68
2022/07/21 05:40:50;;;;;;;3.30;3.00;;;;;;;;;;5049124;28;20052;-67
2022/07/21 05:43:26;;;;;;;3.80;3.30;;;;;;;;;;5035047;28;20114;-69
2022/07/21 05:46:20;;;;;;;3.38;3.03;;;;;;;;;;5045345;28;20487;-66
2022/07/21 05:48:55;;;;;;;4.50;3.53;;;;;;;;;;5054366;28;20728;-69
2022/07/21 05:51:44;;;;;;;4.03;3.60;;;;;;;;;;5068975;28;20488;-70
2022/07/21 05:54:33;;;;;;;5.20;3.67;;;;;;;;;;5057405;28;20064;-69
2022/07/21 05:57:22;;;;;;;5.50;4.88;;;;;;;;;;5028056;28;20107;-67
2022/07/21 06:00:11;;;;;;;5.55;4.97;;;;;;;;;;5028211;28;20560;-69
2022/07/21 06:02:53;;;;;;;5.32;4.70;;;;;;;;;;5029428;28;20115;-69
2022/07/21 06:05:41;;;;;;;6.18;4.95;;;;;;;;;;5028944;28;20514;-68
2022/07/21 06:08:23;;;;;;;5.43;4.88;;;;;;;;;;5046454;28;20469;-69
2022/07/21 06:11:12;;;;;;;5.88;4.82;;;;;;;;;;5048985;28;20052;-68
2022/07/21 06:13:54;;;;;;;5.97;5.03;;;;;;;;;;5043403;28;20114;-68
2022/07/21 06:16:41;;;;;;;5.15;4.65;;;;;;;;;;5047528;28;20044;-67
2022/07/21 06:19:23;;;;;;;6.50;5.45;;;;;;;;;;5035589;28;20141;-68
2022/07/21 06:22:12;;;;;;;6.10;5.25;;;;;;;;;;5030146;28;20123;-68
2022/07/21 06:25:01;;;;;;;5.90;4.93;;;;;;;;;;5032732;28;20056;-68
2022/07/21 06:27:50;;;;;;;6.75;4.68;;;;;;;;;;5047838;28;20052;-68
2022/07/21 06:30:32;;;;;;;7.82;5.35;;;;;;;;;;5030204;28;20056;-69
2022/07/21 06:33:21;;;;;;;5.97;4.97;;;;;;;;;;5048007;28;20065;-69
2022/07/21 06:36:16;;;;;;;6.25;5.03;;;;;;;;;;5047099;28;20510;-69
2022/07/21 06:39:14;;;;;;;6.35;5.43;;;;;;;;;;5047346;28;20801;-67
2022/07/21 06:42:03;;;;;;;7.03;5.93;;;;;;;;;;5048275;28;20056;-67
2022/07/21 06:44:50;;;;;;;6.10;5.50;;;;;;;;;;5046051;28;20451;-67
2022/07/21 06:47:33;;;;;;;6.40;5.80;;;;;;;;;;5046476;28;20044;-67
2022/07/21 06:50:21;;;;;;;6.78;5.65;;;;;;;;;;5060823;28;20049;-68
2022/07/21 06:53:03;;;;;;;5.75;5.18;;;;;;;;;;5062385;28;20052;-67
2022/07/21 06:55:52;;;;;;;7.55;5.40;;;;;;;;;;5064342;28;20060;-68
2022/07/21 06:58:42;;;;;;;6.78;5.00;;;;;;;;;;5063430;28;20079;-68
2022/07/21 07:01:31;;;;;;;6.60;5.53;;;;;;;;;;5085881;28;20051;-68
2022/07/21 07:04:20;;;;;;;5.05;4.65;;;;;;;;;;5051722;28;20097;-67
2022/07/21 07:07:02;;;;;;;5.53;5.03;;;;;;;;;;5058039;28;20055;-68
2022/07/21 07:09:59;;;;;;;5.53;5.00;;;;;;;;;;5056493;28;20053;-68
2022/07/21 07:12:36;;;;;;;6.28;5.05;;;;;;;;;;5068516;28;20048;-69
2022/07/21 07:15:44;;;;;;;6.93;5.78;;;;;;;;;;5065135;28;20137;-69
2022/07/21 07:18:33;;;;;;;7.13;5.45;;;;;;;;;;5061255;28;20143;-68
2022/07/21 07:21:22;;;;;;;6.95;6.25;;;;;;;;;;5067842;28;20048;-69
2022/07/21 07:24:10;;;;;;;7.65;6.90;;;;;;;;;;5063241;28;20118;-69
2022/07/21 07:26:51;;;;;;;7.10;6.40;;;;;;;;;;5067701;28;20048;-68
2022/07/21 07:29:39;;;;;;;7.90;7.10;;;;;;;;;;5067674;28;20072;-68
2022/07/21 07:32:21;;;;;;;9.00;8.10;;;;;;;;;;5051448;28;20045;-68
2022/07/21 07:35:09;;;;;;;8.38;7.47;;;;;;;;;;5048053;28;20045;-67
2022/07/21 07:37:57;;;;;;;8.52;7.63;;;;;;;;;;5045835;28;20063;-68
2022/07/21 07:40:52;;;;;;;7.47;6.78;;;;;;;;;;5045908;28;20048;-69
2022/07/21 07:43:27;;;;;;;6.45;5.85;;;;;;;;;;5052054;28;20079;-68
2022/07/21 07:46:22;;;;;;;6.05;5.45;;;;;;;;;;5060019;28;20052;-68
2022/07/21 07:48:59;;;;;;;5.72;5.22;;;;;;;;;;5047305;28;20041;-68
2022/07/21 07:51:58;;;;;;;6.22;5.65;;;;;;;;;;5046442;28;20049;-69
2022/07/21 07:54:40;;;;;;;6.60;5.93;;;;;;;;;;5047379;28;20376;-68
2022/07/21 07:57:35;;;;;;;5.97;5.38;;;;;;;;;;5047255;28;20152;-68
2022/07/21 08:00:13;;;;;;;5.97;5.47;;;;;;;;;;5046361;28;20056;-68
2022/07/21 08:03:22;;;;;;;5.90;5.40;;;;;;;;;;5046932;28;20111;-68
2022/07/21 08:06:06;;;;;;;6.88;5.55;;;;;;;;;;5029868;28;20045;-68
2022/07/21 08:09:00;;;;;;;4.60;4.30;;;;;;;;;;5072378;28;20105;-70
2022/07/21 08:11:35;;;;;;;4.72;4.32;;;;;;;;;;5073426;28;20083;-68
2022/07/21 08:14:24;;;;;;;4.47;4.07;;;;;;;;;;5066018;28;20480;-68
2022/07/21 08:17:05;;;;;;;5.85;5.18;;;;;;;;;;5057266;28;20830;-68
2022/07/21 08:19:54;;;;;;;5.25;4.72;;;;;;;;;;5046610;28;20655;-68
2022/07/21 08:22:36;;;;;;;5.20;4.70;;;;;;;;;;5050596;28;20052;-68
2022/07/21 08:25:31;;;;;;;5.05;4.63;;;;;;;;;;5066303;28;20048;-69
2022/07/21 08:28:06;;;;;;;5.85;4.63;;;;;;;;;;5066016;28;20151;-68
2022/07/21 08:31:01;;;;;;;12.30;5.40;;;;;;;;;;5045841;28;20059;-68
2022/07/21 08:33:36;;;;;;;4.97;4.60;;;;;;;;;;5060534;28;20052;-68
2022/07/21 08:36:24;;;;;;;5.45;4.95;;;;;;;;;;5065524;28;20157;-68
2022/07/21 08:39:08;;;;;;;5.57;5.05;;;;;;;;;;5064100;28;20110;-68
2022/07/21 08:42:03;;;;;;;5.50;5.00;;;;;;;;;;5064502;28;20043;-68
2022/07/21 08:44:38;;;;;;;4.68;4.05;;;;;;;;;;5030955;28;20049;-68
2022/07/21 08:47:26;;;;;;;6.07;4.57;;;;;;;;;;5059550;28;20159;-68
2022/07/21 08:50:09;;;;;;;5.30;4.80;;;;;;;;;;5051957;28;20384;-68
2022/07/21 08:53:04;;;;;;;6.55;4.82;;;;;;;;;;5053313;28;20068;-69
2022/07/21 08:55:39;;;;;;;8.60;4.05;;;;;;;;;;5051395;28;20048;-68
2022/07/21 08:58:28;;;;;;;4.03;3.33;;;;;;;;;;5058972;28;20074;-69
2022/07/21 09:01:17;;;;;;;4.00;3.70;;;;;;;;;;5056742;28;20048;-69
2022/07/21 09:04:19;;;;;;;3.28;2.78;;;;;;;;;;5030605;28;20632;-69
2022/07/21 09:07:18;;;;;;;3.00;2.80;;;;;;;;;;5049519;28;20060;-69
2022/07/21 09:10:01;;;;;;;2.90;2.60;;;;;;;;;;5046026;28;20052;-67
2022/07/21 09:12:56;;;;;;;3.20;2.03;;;;;;;;;;5049351;28;20052;-68
2022/07/21 09:15:39;;;;;;;1.90;1.65;;;;;;;;;;5064330;28;20058;-68
2022/07/21 09:18:27;;;;;;;1.50;1.40;;;;;;;;;;5032933;28;20424;-69
2022/07/21 09:21:23;;;;;;;1.38;1.20;;;;;;;;;;5047108;28;20049;-66
2022/07/21 09:24:14;;;;;;;1.58;1.42;;;;;;;;;;5051080;28;20045;-65
2022/07/21 09:27:11;;;;;;;1.30;1.20;;;;;;;;;;5055262;28;20055;-66
2022/07/21 09:29:48;;;;;;;2.05;1.27;;;;;;;;;;5052130;28;20045;-66
2022/07/21 09:32:42;;;;;;;1.20;1.10;;;;;;;;;;5051156;28;20091;-67
2022/07/21 09:35:17;;;;;;;1.23;1.08;;;;;;;;;;5053669;28;20057;-66
2022/07/21 09:38:19;;;;;;;1.63;1.13;;;;;;;;;;5055855;28;20036;-67
2022/07/21 09:41:15;;;;;;;1.30;1.20;;;;;;;;;;5055842;28;20455;-67
2022/07/21 09:44:10;;;;;;;2.60;1.77;;;;;;;;;;5045289;28;20044;-67
2022/07/21 09:46:45;;;;;;;1.45;1.30;;;;;;;;;;5045440;28;20041;-67
2022/07/21 09:49:43;;;;;;;1.23;1.13;;;;;;;;;;5046092;28;20110;-67
2022/07/21 09:52:40;;;;;;;1.35;1.17;;;;;;;;;;5053755;28;20049;-67
2022/07/21 09:55:35;;;;;;;2.15;1.45;;;;;;;;;;5045873;28;20048;-67
2022/07/21 09:58:30;;;;;;;1.73;1.63;;;;;;;;;;5043426;28;20267;-68
2022/07/21 10:01:05;;;;;;;2.60;1.80;;;;;;;;;;5045222;28;20045;-68
2022/07/21 10:04:01;;;;;;;5.93;2.15;;;;;;;;;;5027083;28;20345;-67
2022/07/21 10:06:37;;;;;;;2.05;1.73;;;;;;;;;;5044628;28;20140;-66
2022/07/21 10:09:32;;;;;;;2.30;1.90;;;;;;;;;;4700000;28;10000317;-68
2022/07/21 10:12:08;;;;;;;2.67;2.22;;;;;;;;;;5053804;28;20059;-67
2022/07/21 10:14:57;;;;;;;2.47;2.13;;;;;;;;;;5051262;28;20048;-69
2022/07/21 10:17:38;;;;;;;3.90;2.25;;;;;;;;;;5047222;28;20040;-68
2022/07/21 10:20:30;;;;;;;8.27;2.42;;;;;;;;;;5048626;28;20076;-68
2022/07/21 10:23:41;;;;;;;2.58;2.38;;;;;;;;;;5032483;28;20322;-68
2022/07/21 10:26:23;;;;;;;2.95;2.42;;;;;;;;;;5050620;28;20164;-68
2022/07/21 10:29:11;;;;;;;4.13;2.70;;;;;;;;;;5051963;28;20520;-69
2022/07/21 10:32:08;;;;;;;3.03;2.50;;;;;;;;;;5032701;28;20056;-68
2022/07/21 10:34:56;;;;;;;3.38;2.67;;;;;;;;;;5051500;28;20126;-68
2022/07/21 10:37:40;;;;;;;3.80;2.60;;;;;;;;;;5051897;28;20341;-69
2022/07/21 10:40:35;;;;;;;3.60;2.90;;;;;;;;;;5052475;28;20425;-68
2022/07/21 10:43:23;;;;;;;4.65;2.72;;;;;;;;;;5031460;28;20906;-70
2022/07/21 10:46:31;;;;;;;3.45;2.78;;;;;;;;;;5034535;28;20364;-68
2022/07/21 10:49:39;;;;;;;2.95;2.75;;;;;;;;;;5035475;28;20053;-68
2022/07/21 10:52:49;;;;;;;3.40;3.10;;;;;;;;;;5033284;28;20107;-69
2022/07/21 10:55:38;;;;;;;4.15;2.80;;;;;;;;;;4999294;28;20041;-68
2022/07/21 10:58:23;;;;;;;4.28;3.13;;;;;;;;;;5035405;28;20155;-70
2022/07/21 11:01:14;;;;;;;4.18;3.25;;;;;;;;;;5036778;28;20132;-69
2022/07/21 11:04:19;;;;;;;2.92;2.33;;;;;;;;;;5034747;28;20135;-69
2022/07/21 11:07:07;;;;;;;4.90;2.00;;;;;;;;;;5032323;28;20134;-68
2022/07/21 11:10:28;;;;;;;2.80;1.67;;;;;;;;;;5033439;28;20048;-69
2022/07/21 11:13:11;;;;;;;2.20;1.63;;;;;;;;;;5000167;28;20058;-69
2022/07/21 11:16:01;;;;;;;3.60;1.50;;;;;;;;;;5016012;28;20049;-69
2022/07/21 11:18:56;;;;;;;2.60;1.30;;;;;;;;;;5037855;28;20535;-69
2022/07/21 11:21:34;;;;;;;1.33;1.23;;;;;;;;;;5064367;28;20048;-67
2022/07/21 11:24:23;;;;;;;2.55;1.55;;;;;;;;;;5035117;28;20084;-69
2022/07/21 11:27:06;;;;;;;2.10;1.20;;;;;;;;;;5034868;28;20146;-67
2022/07/21 11:29:56;;;;;;;1.58;1.42;;;;;;;;;;5060038;28;20060;-68
2022/07/21 11:32:37;;;;;;;2.90;1.50;;;;;;;;;;5032439;28;20056;-68
2022/07/21 11:35:25;;;;;;;1.73;1.23;;;;;;;;;;5041931;28;20507;-68
2022/07/21 11:38:10;;;;;;;3.05;1.10;;;;;;;;;;5039984;28;20048;-67
2022/07/21 11:41:21;;;;;;;2.33;1.42;;;;;;;;;;5041764;28;20056;-69
2022/07/21 11:44:11;;;;;;;1.73;1.17;;;;;;;;;;5033895;28;20112;-68
2022/07/21 11:47:01;;;;;;;4.05;1.38;;;;;;;;;;5035108;28;20077;-69
2022/07/21 11:49:43;;;;;;;5.50;1.55;;;;;;;;;;5037752;28;20049;-70
2022/07/21 11:52:33;;;;;;;3.10;1.40;;;;;;;;;;5046801;28;20053;-67
2022/07/21 11:55:29;;;;;;;2.28;1.70;;;;;;;;;;5046060;28;20106;-67
2022/07/21 11:58:12;;;;;;;3.17;1.58;;;;;;;;;;5028964;28;20048;-68
2022/07/21 12:01:05;;;;;;;4.28;1.70;;;;;;;;;;5046369;28;20532;-68
2022/07/21 12:03:55;;;;;;;3.58;1.65;;;;;;;;;;5037245;28;20095;-68
2022/07/21 12:06:37;;;;;;;1.95;1.58;;;;;;;;;;5025487;28;20153;-68
2022/07/21 12:09:26;;;;;;;5.82;1.67;;;;;;;;;;5044267;28;20080;-68
2022/07/21 12:12:21;;;;;;;2.00;1.80;;;;;;;;;;5045295;28;20103;-69
2022/07/21 12:14:57;;;;;;;5.78;1.45;;;;;;;;;;5039437;28;20048;-68
2022/07/21 12:17:47;;;;;;;5.32;2.13;;;;;;;;;;5037871;28;20649;-68
2022/07/21 12:20:38;;;;;;;3.03;1.60;;;;;;;;;;5044694;28;20106;-70
2022/07/21 12:23:27;;;;;;;4.50;2.05;;;;;;;;;;5045463;28;20046;-67
2022/07/21 12:26:26;;;;;;;1.98;1.67;;;;;;;;;;5044281;28;20160;-68
2022/07/21 12:29:28;;;;;;;3.55;1.88;;;;;;;;;;5045192;28;20056;-68
2022/07/21 12:32:10;;;;;;;2.80;1.83;;;;;;;;;;5038742;28;20048;-68
2022/07/21 12:35:05;;;;;;;3.17;1.67;;;;;;;;;;5022827;28;20055;-68
2022/07/21 12:38:24;;;;;;;3.25;1.70;;;;;;;;;;5040289;28;20415;-68
2022/07/21 12:41:22;;;;;;;3.00;1.95;;;;;;;;;;5015514;28;20056;-69
2022/07/21 12:44:11;;;;;;;8.50;2.70;;;;;;;;;;5058884;28;20040;-69
2022/07/21 12:47:00;;;;;;;4.78;2.55;;;;;;;;;;5048305;28;20056;-69
2022/07/21 12:50:09;;;;;;;2.33;2.10;;;;;;;;;;5047230;28;20388;-69
2022/07/21 12:52:55;;;;;;;3.90;2.30;;;;;;;;;;5049564;28;20041;-70
2022/07/21 12:55:44;;;;;;;7.82;2.17;;;;;;;;;;5047615;28;20473;-70
2022/07/21 12:58:32;;;;;;;4.68;2.10;;;;;;;;;;5046004;28;20049;-70
2022/07/21 13:01:15;;;;;;;4.82;2.20;;;;;;;;;;5045811;28;20037;-70
2022/07/21 13:04:04;;;;;;;3.38;2.00;;;;;;;;;;5046494;28;20045;-71
2022/07/21 13:06:52;;;;;;;3.47;2.38;;;;;;;;;;5046381;28;20076;-70
2022/07/21 13:09:34;;;;;;;4.53;2.53;;;;;;;;;;5028829;28;20071;-70
2022/07/21 13:12:24;;;;;;;6.88;2.63;;;;;;;;;;5052567;28;20068;-70
2022/07/21 13:15:12;;;;;;;3.78;2.28;;;;;;;;;;5065755;28;20052;-70
2022/07/21 13:18:07;;;;;;;4.03;2.13;;;;;;;;;;5066276;28;20044;-70
2022/07/21 13:20:43;;;;;;;2.97;2.05;;;;;;;;;;5066039;28;20044;-69
2022/07/21 13:23:39;;;;;;;5.43;2.00;;;;;;;;;;5059918;28;20060;-69
2022/07/21 13:26:14;;;;;;;3.55;2.00;;;;;;;;;;5052355;28;20472;-69
2022/07/21 13:29:05;;;;;;;4.65;2.13;;;;;;;;;;5054137;28;20057;-68
2022/07/21 13:31:47;;;;;;;4.80;2.30;;;;;;;;;;5049718;28;20080;-69
2022/07/21 13:34:42;;;;;;;5.30;2.08;;;;;;;;;;5045451;28;20480;-71
2022/07/21 13:37:38;;;;;;;7.85;2.63;;;;;;;;;;5032145;28;20136;-71
2022/07/21 13:40:27;;;;;;;3.90;2.88;;;;;;;;;;5045009;28;20123;-71
2022/07/21 13:43:35;;;;;;;2.63;2.28;;;;;;;;;;5052509;28;20041;-72
2022/07/21 13:46:32;;;;;;;6.97;3.13;;;;;;;;;;4694636;28;10001286;-72
2022/07/21 13:49:21;;;;;;;8.27;3.05;;;;;;;;;;5043588;28;20045;-72
2022/07/21 13:52:10;;;;;;;5.95;3.25;;;;;;;;;;5043278;28;20114;-70
2022/07/21 13:54:51;;;;;;;5.15;3.10;;;;;;;;;;5043520;28;20110;-71
2022/07/21 13:57:40;;;;;;;5.88;2.92;;;;;;;;;;5059217;28;20056;-71
2022/07/21 14:00:22;;;;;;;5.22;3.83;;;;;;;;;;5060233;28;20049;-70
2022/07/21 14:03:10;;;;;;;5.47;3.42;;;;;;;;;;5053141;28;20114;-71
2022/07/21 14:05:59;;;;;;;3.83;3.42;;;;;;;;;;5037932;28;20111;-71
2022/07/21 14:08:47;;;;;;;4.82;3.63;;;;;;;;;;5053628;28;20056;-70
2022/07/21 14:11:29;;;;;;;4.88;3.97;;;;;;;;;;5066266;28;20059;-70
2022/07/21 14:14:21;;;;;;;4.55;3.83;;;;;;;;;;5053624;28;20098;-72
2022/07/21 14:17:10;;;;;;;5.78;4.18;;;;;;;;;;5045601;28;20045;-69
2022/07/21 14:19:59;;;;;;;6.28;4.82;;;;;;;;;;5050570;28;20056;-71
2022/07/21 14:22:41;;;;;;;6.13;4.88;;;;;;;;;;5069374;28;20056;-70
2022/07/21 14:25:30;;;;;;;5.22;4.72;;;;;;;;;;5053535;28;20060;-70
2022/07/21 14:28:12;;;;;;;6.95;5.03;;;;;;;;;;5052600;28;20044;-69
2022/07/21 14:31:00;;;;;;;5.38;4.70;;;;;;;;;;5064223;28;20079;-71
2022/07/21 14:33:48;;;;;;;8.55;5.28;;;;;;;;;;5068125;28;20342;-70
2022/07/21 14:36:37;;;;;;;6.07;5.13;;;;;;;;;;4703366;28;10000019;-72
2022/07/21 14:39:19;;;;;;;8.80;5.32;;;;;;;;;;5065717;28;20044;-71
2022/07/21 14:42:09;;;;;;;7.47;5.75;;;;;;;;;;5065308;28;20141;-69
2022/07/21 14:44:58;;;;;;;11.63;5.43;;;;;;;;;;5055980;28;20055;-76
2022/07/21 14:47:53;;;;;;;8.30;5.82;;;;;;;;;;5058021;28;20476;-71
2022/07/21 14:50:35;;;;;;;7.07;5.93;;;;;;;;;;5052671;28;20059;-71
2022/07/21 14:53:24;;;;;;;6.95;6.00;;;;;;;;;;5065344;28;20121;-76
2022/07/21 14:56:13;;;;;;;7.03;6.32;;;;;;;;;;5038305;28;20056;-71
2022/07/21 14:58:55;;;;;;;12.55;6.68;;;;;;;;;;5031667;28;20044;-74
2022/07/21 15:01:43;;;;;;;11.27;6.70;;;;;;;;;;5048454;28;20048;-74
2022/07/21 15:04:32;;;;;;;7.80;6.22;;;;;;;;;;5047855;28;20132;-74
2022/07/21 15:07:14;;;;;;;8.20;7.18;;;;;;;;;;5030475;28;20511;-72
2022/07/21 15:10:03;;;;;;;10.80;6.85;;;;;;;;;;5031480;28;20064;-74
2022/07/21 15:12:47;;;;;;;8.52;6.85;;;;;;;;;;5048742;28;20048;-73
2022/07/21 15:15:36;;;;;;;12.60;6.85;;;;;;;;;;5056897;28;20483;-73
2022/07/21 15:18:25;;;;;;;11.45;7.65;;;;;;;;;;5067305;28;20067;-74
2022/07/21 15:21:07;;;;;;;10.55;8.32;;;;;;;;;;5068436;28;20060;-73
2022/07/21 15:23:55;;;;;;;10.05;8.48;;;;;;;;;;5068633;28;20068;-73
2022/07/21 15:26:44;;;;;;;18.23;10.80;;;;;;;;;;5071941;28;20052;-72
2022/07/21 15:29:25;;;;;;;18.08;8.73;;;;;;;;;;5077258;28;20060;-72
2022/07/21 15:32:14;;;;;;;12.23;8.55;;;;;;;;;;5068403;28;20492;-72
2022/07/21 15:35:03;;;;;;;16.58;9.25;;;;;;;;;;5070026;28;20049;-72
2022/07/21 15:37:58;;;;;;;11.52;8.13;;;;;;;;;;5068817;28;20490;-73
2022/07/21 15:40:33;;;;;;;10.40;9.27;;;;;;;;;;5051828;28;20531;-74
2022/07/21 15:43:22;;;;;;;11.43;9.05;;;;;;;;;;5048530;28;20113;-73
2022/07/21 15:46:04;;;;;;;11.70;8.73;;;;;;;;;;5064372;28;20040;-72
2022/07/21 15:48:52;;;;;;;10.57;8.32;;;;;;;;;;5060756;28;20202;-72
2022/07/21 15:51:38;;;;;;;15.55;8.80;;;;;;;;;;5064275;28;20080;-70
2022/07/21 15:54:27;;;;;;;17.75;8.80;;;;;;;;;;5037864;28;20049;-72
2022/07/21 15:57:31;;;;;;;15.30;9.30;;;;;;;;;;5063013;28;20478;-73
2022/07/21 16:00:20;;;;;;;11.55;9.45;;;;;;;;;;5049652;28;20132;-72
2022/07/21 16:03:02;;;;;;;16.30;9.73;;;;;;;;;;5067491;28;20058;-70
2022/07/21 16:05:52;;;;;;;13.43;9.18;;;;;;;;;;5054597;28;20044;-72
2022/07/21 16:08:40;;;;;;;12.27;9.13;;;;;;;;;;5049361;28;20045;-70
2022/07/21 16:11:22;;;;;;;14.80;9.00;;;;;;;;;;5046801;28;20045;-70
2022/07/21 16:14:09;;;;;;;10.10;8.45;;;;;;;;;;5062158;28;20501;-71
2022/07/21 16:16:51;;;;;;;11.63;9.05;;;;;;;;;;5065367;28;20048;-71
2022/07/21 16:19:39;;;;;;;11.40;9.32;;;;;;;;;;5061635;28;20151;-72
2022/07/21 16:22:21;;;;;;;14.38;9.98;;;;;;;;;;5047590;28;20036;-73
2022/07/21 16:25:10;;;;;;;16.88;9.68;;;;;;;;;;5064116;28;20113;-72
2022/07/21 16:27:58;;;;;;;12.52;10.10;;;;;;;;;;5066128;28;20075;-73
2022/07/21 16:30:40;;;;;;;13.73;10.85;;;;;;;;;;5040211;28;20470;-72
2022/07/21 16:33:28;;;;;;;13.70;10.57;;;;;;;;;;5046041;28;20095;-73
2022/07/21 16:36:13;;;;;;;11.13;9.95;;;;;;;;;;5045748;28;20052;-72
2022/07/21 16:39:10;;;;;;;12.57;10.05;;;;;;;;;;5046499;28;20110;-72
2022/07/21 16:41:45;;;;;;;14.57;10.63;;;;;;;;;;5046696;28;20135;-72
2022/07/21 16:44:40;;;;;;;10.35;9.23;;;;;;;;;;5062730;28;20495;-71
2022/07/21 16:47:29;;;;;;;12.13;10.35;;;;;;;;;;5061857;28;20048;-72